Time;durP1;ratioP1;P1;durP2;ratioP2;P2;SDS_P1;SDS_P2;PMS_P1;PMS_P2;Temp;Humidity;BMP_temperature;BMP_pressure;BME280_temperature;BME280_humidity;BME280_pressure;Samples;Min_cycle;Max_cycle;Signal;HPM_P1;HPM_P2
2020/09/15 00:00:13;;;;;;;15.95;14.45;;;;;;;13.93;87.13477;95829.71;;;;
2020/09/15 00:01:14;;;;;;;15.95;14.45;;;;;;;13.93;87.13477;95829.71;;;;
2020/09/15 00:02:17;;;;;;;15.95;14.45;;;;;;;13.93;87.13477;95829.71;;;;
2020/09/15 00:03:18;;;;;;;16.05;14.5;;;;;;;13.81;87.56152;95823.1;;;;
2020/09/15 00:04:18;;;;;;;16.05;14.5;;;;;;;13.81;87.56152;95823.1;;;;
2020/09/15 00:05:19;;;;;;;16.05;14.5;;;;;;;13.81;87.56152;95823.1;;;;
2020/09/15 00:06:20;;;;;;;16.05;14.5;;;;;;;13.81;87.56152;95823.1;;;;
2020/09/15 00:07:23;;;;;;;16.05;14.5;;;;;;;13.81;87.56152;95823.1;;;;
2020/09/15 00:08:23;;;;;;;16.05;14.5;;;;;;;13.81;87.56152;95823.1;;;;
2020/09/15 00:09:24;;;;;;;16.05;14.5;;;;;;;13.81;87.56152;95823.1;;;;
2020/09/15 00:10:24;;;;;;;16.05;14.5;;;;;;;13.81;87.56152;95823.1;;;;
2020/09/15 00:11:25;;;;;;;16.05;14.5;;;;;;;13.81;87.56152;95823.1;;;;
2020/09/15 00:12:26;;;;;;;16.05;14.5;;;;;;;13.81;87.56152;95823.1;;;;
2020/09/15 00:13:26;;;;;;;16.25;14.55;;;;;;;13.67;88.10254;95819.98;;;;
2020/09/15 00:14:27;;;;;;;16.25;14.55;;;;;;;13.67;88.10254;95819.98;;;;
2020/09/15 00:15:27;;;;;;;16.25;14.55;;;;;;;13.67;88.10254;95819.98;;;;
2020/09/15 00:16:28;;;;;;;16.25;14.55;;;;;;;13.67;88.10254;95819.98;;;;
2020/09/15 00:17:28;;;;;;;16.25;14.55;;;;;;;13.67;88.10254;95819.98;;;;
2020/09/15 00:18:29;;;;;;;16.25;14.55;;;;;;;13.67;88.10254;95819.98;;;;
2020/09/15 00:19:29;;;;;;;16.25;14.55;;;;;;;13.67;88.10254;95819.98;;;;
2020/09/15 00:20:30;;;;;;;16.25;14.55;;;;;;;13.67;88.10254;95819.98;;;;
2020/09/15 00:21:31;;;;;;;16.25;14.55;;;;;;;13.67;88.10254;95819.98;;;;
2020/09/15 00:22:32;;;;;;;16.25;14.55;;;;;;;13.67;88.10254;95819.98;;;;
2020/09/15 00:23:33;;;;;;;16.25;14.55;;;;;;;13.67;88.10254;95819.98;;;;
2020/09/15 00:24:33;;;;;;;17.2;15.4;;;;;;;13.56;88.5752;95828.88;;;;
2020/09/15 00:25:34;;;;;;;17.2;15.4;;;;;;;13.56;88.5752;95828.88;;;;
2020/09/15 00:26:34;;;;;;;17.2;15.4;;;;;;;13.56;88.5752;95828.88;;;;
2020/09/15 00:27:38;;;;;;;17.2;15.4;;;;;;;13.56;88.5752;95828.88;;;;
2020/09/15 00:28:38;;;;;;;17.2;15.4;;;;;;;13.56;88.5752;95828.88;;;;
2020/09/15 00:29:39;;;;;;;17.2;15.4;;;;;;;13.56;88.5752;95828.88;;;;
2020/09/15 00:30:39;;;;;;;17.2;15.4;;;;;;;13.56;88.5752;95828.88;;;;
2020/09/15 00:31:40;;;;;;;17.2;15.4;;;;;;;13.56;88.5752;95828.88;;;;
2020/09/15 00:32:41;;;;;;;17.2;15.4;;;;;;;13.56;88.5752;95828.88;;;;
2020/09/15 00:33:42;;;;;;;17.2;15.4;;;;;;;13.56;88.5752;95828.88;;;;
2020/09/15 00:34:42;;;;;;;16.65;15.05;;;;;;;13.56;88.87598;95824.38;;;;
2020/09/15 00:35:42;;;;;;;16.65;15.05;;;;;;;13.56;88.87598;95824.38;;;;
2020/09/15 00:36:46;;;;;;;16.65;15.05;;;;;;;13.56;88.87598;95824.38;;;;
2020/09/15 00:37:47;;;;;;;16.65;15.05;;;;;;;13.56;88.87598;95824.38;;;;
2020/09/15 00:38:47;;;;;;;16.65;15.05;;;;;;;13.56;88.87598;95824.38;;;;
2020/09/15 00:39:48;;;;;;;16.65;15.05;;;;;;;13.56;88.87598;95824.38;;;;
2020/09/15 00:40:48;;;;;;;16.65;15.05;;;;;;;13.56;88.87598;95824.38;;;;
2020/09/15 00:41:49;;;;;;;16.65;15.05;;;;;;;13.56;88.87598;95824.38;;;;
2020/09/15 00:42:50;;;;;;;16.65;15.05;;;;;;;13.56;88.87598;95824.38;;;;
2020/09/15 00:43:57;;;;;;;16.65;15.05;;;;;;;13.56;88.87598;95824.38;;;;
2020/09/15 00:44:57;;;;;;;16.65;15.05;;;;;;;13.56;88.87598;95824.38;;;;
2020/09/15 00:45:58;;;;;;;16.15;14.65;;;;;;;13.42;89.17969;95826.53;;;;
2020/09/15 00:47:02;;;;;;;16.15;14.65;;;;;;;13.42;89.17969;95826.53;;;;
2020/09/15 00:48:04;;;;;;;16.15;14.65;;;;;;;13.42;89.17969;95826.53;;;;
2020/09/15 00:49:04;;;;;;;16.15;14.65;;;;;;;13.42;89.17969;95826.53;;;;
2020/09/15 00:50:05;;;;;;;16.15;14.65;;;;;;;13.42;89.17969;95826.53;;;;
2020/09/15 00:51:06;;;;;;;16.15;14.65;;;;;;;13.42;89.17969;95826.53;;;;
2020/09/15 00:52:10;;;;;;;16.15;14.65;;;;;;;13.42;89.17969;95826.53;;;;
2020/09/15 00:53:11;;;;;;;16.15;14.65;;;;;;;13.42;89.17969;95826.53;;;;
2020/09/15 00:54:11;;;;;;;16.15;14.65;;;;;;;13.42;89.17969;95826.53;;;;
2020/09/15 00:55:12;;;;;;;16.15;14.65;;;;;;;13.42;89.17969;95826.53;;;;
2020/09/15 00:56:12;;;;;;;16.6;15;;;;;;;13.28;89.69824;95825.68;;;;
2020/09/15 00:57:14;;;;;;;16.6;15;;;;;;;13.28;89.69824;95825.68;;;;
2020/09/15 00:58:15;;;;;;;16.6;15;;;;;;;13.28;89.69824;95825.68;;;;
2020/09/15 00:59:17;;;;;;;16.6;15;;;;;;;13.28;89.69824;95825.68;;;;
2020/09/15 01:00:17;;;;;;;16.6;15;;;;;;;13.28;89.69824;95825.68;;;;
2020/09/15 01:01:18;;;;;;;16.6;15;;;;;;;13.28;89.69824;95825.68;;;;
2020/09/15 01:02:22;;;;;;;16.6;15;;;;;;;13.28;89.69824;95825.68;;;;
2020/09/15 01:03:24;;;;;;;16.6;15;;;;;;;13.28;89.69824;95825.68;;;;
2020/09/15 01:04:24;;;;;;;16.6;15;;;;;;;13.28;89.69824;95825.68;;;;
2020/09/15 01:05:25;;;;;;;16.6;15;;;;;;;13.28;89.69824;95825.68;;;;
2020/09/15 01:06:27;;;;;;;16.6;15;;;;;;;13.28;89.69824;95825.68;;;;
2020/09/15 01:07:30;;;;;;;16.95;15.25;;;;;;;13.15;90.12109;95824.99;;;;
2020/09/15 01:08:30;;;;;;;16.95;15.25;;;;;;;13.15;90.12109;95824.99;;;;
2020/09/15 01:09:31;;;;;;;16.95;15.25;;;;;;;13.15;90.12109;95824.99;;;;
2020/09/15 01:10:31;;;;;;;16.95;15.25;;;;;;;13.15;90.12109;95824.99;;;;
2020/09/15 01:11:33;;;;;;;16.95;15.25;;;;;;;13.15;90.12109;95824.99;;;;
2020/09/15 01:12:33;;;;;;;16.95;15.25;;;;;;;13.15;90.12109;95824.99;;;;
2020/09/15 01:13:34;;;;;;;16.95;15.25;;;;;;;13.15;90.12109;95824.99;;;;
2020/09/15 01:14:34;;;;;;;16.95;15.25;;;;;;;13.15;90.12109;95824.99;;;;
2020/09/15 01:15:35;;;;;;;16.95;15.25;;;;;;;13.15;90.12109;95824.99;;;;
2020/09/15 01:16:36;;;;;;;16.95;15.25;;;;;;;13.15;90.12109;95824.99;;;;
2020/09/15 01:17:37;;;;;;;16.4;14.8;;;;;;;13.07;90.54492;95817.24;;;;
2020/09/15 01:18:37;;;;;;;16.4;14.8;;;;;;;13.07;90.54492;95817.24;;;;
2020/09/15 01:19:38;;;;;;;16.4;14.8;;;;;;;13.07;90.54492;95817.24;;;;
2020/09/15 01:20:39;;;;;;;16.4;14.8;;;;;;;13.07;90.54492;95817.24;;;;
2020/09/15 01:21:39;;;;;;;16.4;14.8;;;;;;;13.07;90.54492;95817.24;;;;
2020/09/15 01:22:40;;;;;;;16.4;14.8;;;;;;;13.07;90.54492;95817.24;;;;
2020/09/15 01:23:41;;;;;;;16.4;14.8;;;;;;;13.07;90.54492;95817.24;;;;
2020/09/15 01:24:42;;;;;;;16.4;14.8;;;;;;;13.07;90.54492;95817.24;;;;
2020/09/15 01:25:42;;;;;;;16.4;14.8;;;;;;;13.07;90.54492;95817.24;;;;
2020/09/15 01:26:43;;;;;;;16.4;14.8;;;;;;;13.07;90.54492;95817.24;;;;
2020/09/15 01:27:43;;;;;;;16.4;14.8;;;;;;;13.07;90.54492;95817.24;;;;
2020/09/15 01:28:44;;;;;;;18.05;16.25;;;;;;;13.06;90.70313;95809.63;;;;
2020/09/15 01:29:45;;;;;;;18.05;16.25;;;;;;;13.06;90.70313;95809.63;;;;
2020/09/15 01:30:45;;;;;;;18.05;16.25;;;;;;;13.06;90.70313;95809.63;;;;
2020/09/15 01:31:46;;;;;;;18.05;16.25;;;;;;;13.06;90.70313;95809.63;;;;
2020/09/15 01:32:46;;;;;;;18.05;16.25;;;;;;;13.06;90.70313;95809.63;;;;
2020/09/15 01:33:46;;;;;;;18.05;16.25;;;;;;;13.06;90.70313;95809.63;;;;
2020/09/15 01:34:47;;;;;;;18.05;16.25;;;;;;;13.06;90.70313;95809.63;;;;
2020/09/15 01:35:48;;;;;;;18.05;16.25;;;;;;;13.06;90.70313;95809.63;;;;
2020/09/15 01:36:48;;;;;;;18.05;16.25;;;;;;;13.06;90.70313;95809.63;;;;
2020/09/15 01:37:49;;;;;;;18.05;16.25;;;;;;;13.06;90.70313;95809.63;;;;
2020/09/15 01:38:49;;;;;;;16.55;14.85;;;;;;;12.97;90.97266;95803.03;;;;
2020/09/15 01:39:50;;;;;;;16.55;14.85;;;;;;;12.97;90.97266;95803.03;;;;
2020/09/15 01:40:50;;;;;;;16.55;14.85;;;;;;;12.97;90.97266;95803.03;;;;
2020/09/15 01:41:51;;;;;;;16.55;14.85;;;;;;;12.97;90.97266;95803.03;;;;
2020/09/15 01:42:52;;;;;;;16.55;14.85;;;;;;;12.97;90.97266;95803.03;;;;
2020/09/15 01:43:53;;;;;;;16.55;14.85;;;;;;;12.97;90.97266;95803.03;;;;
2020/09/15 01:44:53;;;;;;;16.55;14.85;;;;;;;12.97;90.97266;95803.03;;;;
2020/09/15 01:45:54;;;;;;;16.55;14.85;;;;;;;12.97;90.97266;95803.03;;;;
2020/09/15 01:46:54;;;;;;;16.55;14.85;;;;;;;12.97;90.97266;95803.03;;;;
2020/09/15 01:47:55;;;;;;;16.55;14.85;;;;;;;12.97;90.97266;95803.03;;;;
2020/09/15 01:48:56;;;;;;;16.55;14.85;;;;;;;12.97;90.97266;95803.03;;;;
2020/09/15 01:49:56;;;;;;;16.85;15.05;;;;;;;12.93;91.30762;95802.69;;;;
2020/09/15 01:50:56;;;;;;;16.85;15.05;;;;;;;12.93;91.30762;95802.69;;;;
2020/09/15 01:51:57;;;;;;;16.85;15.05;;;;;;;12.93;91.30762;95802.69;;;;
2020/09/15 01:52:57;;;;;;;16.85;15.05;;;;;;;12.93;91.30762;95802.69;;;;
2020/09/15 01:53:58;;;;;;;16.85;15.05;;;;;;;12.93;91.30762;95802.69;;;;
2020/09/15 01:54:59;;;;;;;16.85;15.05;;;;;;;12.93;91.30762;95802.69;;;;
2020/09/15 01:55:59;;;;;;;16.85;15.05;;;;;;;12.93;91.30762;95802.69;;;;
2020/09/15 01:57:00;;;;;;;16.85;15.05;;;;;;;12.93;91.30762;95802.69;;;;
2020/09/15 01:58:00;;;;;;;16.85;15.05;;;;;;;12.93;91.30762;95802.69;;;;
2020/09/15 01:59:01;;;;;;;16.85;15.05;;;;;;;12.93;91.30762;95802.69;;;;
2020/09/15 02:00:02;;;;;;;16.65;14.95;;;;;;;12.82;91.62891;95796.74;;;;
2020/09/15 02:01:02;;;;;;;16.65;14.95;;;;;;;12.82;91.62891;95796.74;;;;
2020/09/15 02:02:03;;;;;;;16.65;14.95;;;;;;;12.82;91.62891;95796.74;;;;
2020/09/15 02:03:03;;;;;;;16.65;14.95;;;;;;;12.82;91.62891;95796.74;;;;
2020/09/15 02:04:04;;;;;;;16.65;14.95;;;;;;;12.82;91.62891;95796.74;;;;
2020/09/15 02:05:05;;;;;;;16.65;14.95;;;;;;;12.82;91.62891;95796.74;;;;
2020/09/15 02:06:06;;;;;;;16.65;14.95;;;;;;;12.82;91.62891;95796.74;;;;
2020/09/15 02:07:06;;;;;;;16.65;14.95;;;;;;;12.82;91.62891;95796.74;;;;
2020/09/15 02:08:07;;;;;;;16.65;14.95;;;;;;;12.82;91.62891;95796.74;;;;
2020/09/15 02:09:07;;;;;;;16.65;14.95;;;;;;;12.82;91.62891;95796.74;;;;
2020/09/15 02:10:08;;;;;;;16.65;14.95;;;;;;;12.82;91.62891;95796.74;;;;
2020/09/15 02:11:09;;;;;;;17.6;15.8;;;;;;;12.71;92.07617;95794.86;;;;
2020/09/15 02:12:09;;;;;;;17.6;15.8;;;;;;;12.71;92.07617;95794.86;;;;
2020/09/15 02:13:10;;;;;;;17.6;15.8;;;;;;;12.71;92.07617;95794.86;;;;
2020/09/15 02:14:11;;;;;;;17.6;15.8;;;;;;;12.71;92.07617;95794.86;;;;
2020/09/15 02:15:11;;;;;;;17.6;15.8;;;;;;;12.71;92.07617;95794.86;;;;
2020/09/15 02:16:12;;;;;;;17.6;15.8;;;;;;;12.71;92.07617;95794.86;;;;
2020/09/15 02:17:12;;;;;;;17.6;15.8;;;;;;;12.71;92.07617;95794.86;;;;
2020/09/15 02:18:13;;;;;;;17.6;15.8;;;;;;;12.71;92.07617;95794.86;;;;
2020/09/15 02:19:13;;;;;;;17.6;15.8;;;;;;;12.71;92.07617;95794.86;;;;
2020/09/15 02:20:14;;;;;;;17.6;15.8;;;;;;;12.71;92.07617;95794.86;;;;
2020/09/15 02:21:14;;;;;;;17.6;15.8;;;;;;;12.71;92.07617;95794.86;;;;
2020/09/15 02:22:15;;;;;;;17.3;15.05;;;;;;;12.69;92.28613;95788.43;;;;
2020/09/15 02:23:16;;;;;;;17.3;15.05;;;;;;;12.69;92.28613;95788.43;;;;
2020/09/15 02:24:16;;;;;;;17.3;15.05;;;;;;;12.69;92.28613;95788.43;;;;
2020/09/15 02:25:17;;;;;;;17.3;15.05;;;;;;;12.69;92.28613;95788.43;;;;
2020/09/15 02:26:17;;;;;;;17.3;15.05;;;;;;;12.69;92.28613;95788.43;;;;
2020/09/15 02:27:18;;;;;;;17.3;15.05;;;;;;;12.69;92.28613;95788.43;;;;
2020/09/15 02:28:18;;;;;;;17.3;15.05;;;;;;;12.69;92.28613;95788.43;;;;
2020/09/15 02:29:19;;;;;;;17.3;15.05;;;;;;;12.69;92.28613;95788.43;;;;
2020/09/15 02:30:19;;;;;;;17.3;15.05;;;;;;;12.69;92.28613;95788.43;;;;
2020/09/15 02:31:20;;;;;;;17.3;15.05;;;;;;;12.69;92.28613;95788.43;;;;
2020/09/15 02:32:20;;;;;;;16.2;14.75;;;;;;;12.59;92.50098;95788.08;;;;
2020/09/15 02:33:21;;;;;;;16.2;14.75;;;;;;;12.59;92.50098;95788.08;;;;
2020/09/15 02:34:21;;;;;;;16.2;14.75;;;;;;;12.59;92.50098;95788.08;;;;
2020/09/15 02:35:22;;;;;;;16.2;14.75;;;;;;;12.59;92.50098;95788.08;;;;
2020/09/15 02:36:22;;;;;;;16.2;14.75;;;;;;;12.59;92.50098;95788.08;;;;
2020/09/15 02:37:23;;;;;;;16.2;14.75;;;;;;;12.59;92.50098;95788.08;;;;
2020/09/15 02:38:23;;;;;;;16.2;14.75;;;;;;;12.59;92.50098;95788.08;;;;
2020/09/15 02:39:24;;;;;;;16.2;14.75;;;;;;;12.59;92.50098;95788.08;;;;
2020/09/15 02:40:24;;;;;;;16.2;14.75;;;;;;;12.59;92.50098;95788.08;;;;
2020/09/15 02:41:25;;;;;;;16.2;14.75;;;;;;;12.59;92.50098;95788.08;;;;
2020/09/15 02:42:25;;;;;;;16.2;14.75;;;;;;;12.59;92.50098;95788.08;;;;
2020/09/15 02:43:26;;;;;;;17.25;15.45;;;;;;;12.5;92.91992;95786.78;;;;
2020/09/15 02:44:26;;;;;;;17.25;15.45;;;;;;;12.5;92.91992;95786.78;;;;
2020/09/15 02:45:27;;;;;;;17.25;15.45;;;;;;;12.5;92.91992;95786.78;;;;
2020/09/15 02:46:27;;;;;;;17.25;15.45;;;;;;;12.5;92.91992;95786.78;;;;
2020/09/15 02:47:28;;;;;;;17.25;15.45;;;;;;;12.5;92.91992;95786.78;;;;
2020/09/15 02:48:28;;;;;;;17.25;15.45;;;;;;;12.5;92.91992;95786.78;;;;
2020/09/15 02:49:29;;;;;;;17.25;15.45;;;;;;;12.5;92.91992;95786.78;;;;
2020/09/15 02:50:29;;;;;;;17.25;15.45;;;;;;;12.5;92.91992;95786.78;;;;
2020/09/15 02:51:29;;;;;;;17.25;15.45;;;;;;;12.5;92.91992;95786.78;;;;
2020/09/15 02:52:30;;;;;;;17.25;15.45;;;;;;;12.5;92.91992;95786.78;;;;
2020/09/15 02:53:31;;;;;;;17.05;15.35;;;;;;;12.48;93.08496;95786.33;;;;
2020/09/15 02:54:31;;;;;;;17.05;15.35;;;;;;;12.48;93.08496;95786.33;;;;
2020/09/15 02:55:32;;;;;;;17.05;15.35;;;;;;;12.48;93.08496;95786.33;;;;
2020/09/15 02:56:32;;;;;;;17.05;15.35;;;;;;;12.48;93.08496;95786.33;;;;
2020/09/15 02:57:33;;;;;;;17.05;15.35;;;;;;;12.48;93.08496;95786.33;;;;
2020/09/15 02:58:33;;;;;;;17.05;15.35;;;;;;;12.48;93.08496;95786.33;;;;
2020/09/15 02:59:34;;;;;;;17.05;15.35;;;;;;;12.48;93.08496;95786.33;;;;
2020/09/15 03:00:34;;;;;;;17.05;15.35;;;;;;;12.48;93.08496;95786.33;;;;
2020/09/15 03:01:35;;;;;;;17.05;15.35;;;;;;;12.48;93.08496;95786.33;;;;
2020/09/15 03:02:35;;;;;;;17.05;15.35;;;;;;;12.48;93.08496;95786.33;;;;
2020/09/15 03:03:37;;;;;;;17.05;15.35;;;;;;;12.48;93.08496;95786.33;;;;
2020/09/15 03:04:37;;;;;;;18.65;16.7;;;;;;;12.39;93.34668;95787.59;;;;
2020/09/15 03:05:38;;;;;;;18.65;16.7;;;;;;;12.39;93.34668;95787.59;;;;
2020/09/15 03:06:39;;;;;;;18.65;16.7;;;;;;;12.39;93.34668;95787.59;;;;
2020/09/15 03:07:39;;;;;;;18.65;16.7;;;;;;;12.39;93.34668;95787.59;;;;
2020/09/15 03:08:39;;;;;;;18.65;16.7;;;;;;;12.39;93.34668;95787.59;;;;
2020/09/15 03:09:40;;;;;;;18.65;16.7;;;;;;;12.39;93.34668;95787.59;;;;
2020/09/15 03:10:40;;;;;;;18.65;16.7;;;;;;;12.39;93.34668;95787.59;;;;
2020/09/15 03:11:41;;;;;;;18.65;16.7;;;;;;;12.39;93.34668;95787.59;;;;
2020/09/15 03:12:41;;;;;;;18.65;16.7;;;;;;;12.39;93.34668;95787.59;;;;
2020/09/15 03:13:42;;;;;;;18.65;16.7;;;;;;;12.39;93.34668;95787.59;;;;
2020/09/15 03:14:42;;;;;;;17.85;16.15;;;;;;;12.35;93.80469;95775.71;;;;
2020/09/15 03:15:43;;;;;;;17.85;16.15;;;;;;;12.35;93.80469;95775.71;;;;
2020/09/15 03:16:43;;;;;;;17.85;16.15;;;;;;;12.35;93.80469;95775.71;;;;
2020/09/15 03:17:44;;;;;;;17.85;16.15;;;;;;;12.35;93.80469;95775.71;;;;
2020/09/15 03:18:44;;;;;;;17.85;16.15;;;;;;;12.35;93.80469;95775.71;;;;
2020/09/15 03:19:45;;;;;;;17.85;16.15;;;;;;;12.35;93.80469;95775.71;;;;
2020/09/15 03:20:45;;;;;;;17.85;16.15;;;;;;;12.35;93.80469;95775.71;;;;
2020/09/15 03:21:46;;;;;;;17.85;16.15;;;;;;;12.35;93.80469;95775.71;;;;
2020/09/15 03:22:47;;;;;;;17.85;16.15;;;;;;;12.35;93.80469;95775.71;;;;
2020/09/15 03:23:47;;;;;;;17.85;16.15;;;;;;;12.35;93.80469;95775.71;;;;
2020/09/15 03:24:48;;;;;;;17.85;16.15;;;;;;;12.35;93.80469;95775.71;;;;
2020/09/15 03:25:49;;;;;;;18.8;16.9;;;;;;;12.44;93.99609;95766.18;;;;
2020/09/15 03:26:49;;;;;;;18.8;16.9;;;;;;;12.44;93.99609;95766.18;;;;
2020/09/15 03:27:50;;;;;;;18.8;16.9;;;;;;;12.44;93.99609;95766.18;;;;
2020/09/15 03:28:50;;;;;;;18.8;16.9;;;;;;;12.44;93.99609;95766.18;;;;
2020/09/15 03:29:51;;;;;;;18.8;16.9;;;;;;;12.44;93.99609;95766.18;;;;
2020/09/15 03:30:51;;;;;;;18.8;16.9;;;;;;;12.44;93.99609;95766.18;;;;
2020/09/15 03:31:52;;;;;;;18.8;16.9;;;;;;;12.44;93.99609;95766.18;;;;
2020/09/15 03:32:52;;;;;;;18.8;16.9;;;;;;;12.44;93.99609;95766.18;;;;
2020/09/15 03:33:53;;;;;;;18.8;16.9;;;;;;;12.44;93.99609;95766.18;;;;
2020/09/15 03:34:55;;;;;;;18.8;16.9;;;;;;;12.44;93.99609;95766.18;;;;
2020/09/15 03:35:55;;;;;;;18.8;16.9;;;;;;;12.44;93.99609;95766.18;;;;
2020/09/15 03:36:56;;;;;;;17.75;15.9;;;;;;;12.44;94.19922;95763.47;;;;
2020/09/15 03:37:56;;;;;;;17.75;15.9;;;;;;;12.44;94.19922;95763.47;;;;
2020/09/15 03:38:57;;;;;;;17.75;15.9;;;;;;;12.44;94.19922;95763.47;;;;
2020/09/15 03:39:57;;;;;;;17.75;15.9;;;;;;;12.44;94.19922;95763.47;;;;
2020/09/15 03:40:58;;;;;;;17.75;15.9;;;;;;;12.44;94.19922;95763.47;;;;
2020/09/15 03:42:04;;;;;;;17.75;15.9;;;;;;;12.44;94.19922;95763.47;;;;
2020/09/15 03:43:05;;;;;;;17.75;15.9;;;;;;;12.44;94.19922;95763.47;;;;
2020/09/15 03:44:07;;;;;;;17.75;15.9;;;;;;;12.44;94.19922;95763.47;;;;
2020/09/15 03:45:11;;;;;;;17.75;15.9;;;;;;;12.44;94.19922;95763.47;;;;
2020/09/15 03:46:19;;;;;;;17.75;15.9;;;;;;;12.44;94.19922;95763.47;;;;
2020/09/15 03:47:20;;;;;;;17.55;15.55;;;;;;;12.49;94.43359;95765.36;;;;
2020/09/15 03:48:22;;;;;;;17.55;15.55;;;;;;;12.49;94.43359;95765.36;;;;
2020/09/15 03:49:32;;;;;;;17.55;15.55;;;;;;;12.49;94.43359;95765.36;;;;
2020/09/15 03:50:33;;;;;;;17.55;15.55;;;;;;;12.49;94.43359;95765.36;;;;
2020/09/15 03:51:34;;;;;;;17.55;15.55;;;;;;;12.49;94.43359;95765.36;;;;
2020/09/15 03:52:41;;;;;;;17.55;15.55;;;;;;;12.49;94.43359;95765.36;;;;
2020/09/15 03:53:42;;;;;;;17.55;15.55;;;;;;;12.49;94.43359;95765.36;;;;
2020/09/15 03:54:46;;;;;;;17.55;15.55;;;;;;;12.49;94.43359;95765.36;;;;
2020/09/15 03:55:52;;;;;;;17.55;15.55;;;;;;;12.49;94.43359;95765.36;;;;
2020/09/15 03:56:58;;;;;;;17.55;15.55;;;;;;;12.49;94.43359;95765.36;;;;
2020/09/15 03:59:23;;;;;;;18.45;16.65;;;;;;;12.5;94.79004;95761.99;;;;
2020/09/15 04:04:42;;;;;;;18.45;16.65;;;;;;;12.5;94.79004;95761.99;;;;
2020/09/15 04:05:58;;;;;;;18.45;16.65;;;;;;;12.5;94.79004;95761.99;;;;
2020/09/15 04:07:07;;;;;;;18.45;16.65;;;;;;;12.5;94.79004;95761.99;;;;
2020/09/15 04:08:10;;;;;;;17.05;15.45;;;;;;;12.55;95.26172;95762.55;;;;
2020/09/15 04:09:31;;;;;;;17.05;15.45;;;;;;;12.55;95.26172;95762.55;;;;
2020/09/15 04:10:46;;;;;;;17.05;15.45;;;;;;;12.55;95.26172;95762.55;;;;
2020/09/15 04:11:48;;;;;;;17.05;15.45;;;;;;;12.55;95.26172;95762.55;;;;
2020/09/15 04:13:05;;;;;;;17.05;15.45;;;;;;;12.55;95.26172;95762.55;;;;
2020/09/15 04:14:49;;;;;;;17.05;15.45;;;;;;;12.55;95.26172;95762.55;;;;
2020/09/15 04:16:05;;;;;;;17.05;15.45;;;;;;;12.55;95.26172;95762.55;;;;
2020/09/15 04:17:16;;;;;;;17.05;15.45;;;;;;;12.55;95.26172;95762.55;;;;
2020/09/15 04:18:27;;;;;;;17.05;15.45;;;;;;;12.55;95.26172;95762.55;;;;
2020/09/15 04:19:35;;;;;;;18.15;16.15;;;;;;;12.62;95.60449;95752.51;;;;
2020/09/15 04:20:35;;;;;;;18.15;16.15;;;;;;;12.62;95.60449;95752.51;;;;
2020/09/15 04:25:47;;;;;;;18.15;16.15;;;;;;;12.62;95.60449;95752.51;;;;
2020/09/15 04:26:47;;;;;;;18.15;16.15;;;;;;;12.62;95.60449;95752.51;;;;
2020/09/15 04:27:49;;;;;;;18.15;16.15;;;;;;;12.62;95.60449;95752.51;;;;
2020/09/15 04:28:50;;;;;;;18.15;16.15;;;;;;;12.62;95.60449;95752.51;;;;
2020/09/15 04:29:51;;;;;;;17.9;16.05;;;;;;;12.65;95.95313;95749.73;;;;
2020/09/15 04:30:53;;;;;;;17.9;16.05;;;;;;;12.65;95.95313;95749.73;;;;
2020/09/15 04:31:55;;;;;;;17.9;16.05;;;;;;;12.65;95.95313;95749.73;;;;
2020/09/15 04:32:58;;;;;;;17.9;16.05;;;;;;;12.65;95.95313;95749.73;;;;
2020/09/15 04:33:58;;;;;;;17.9;16.05;;;;;;;12.65;95.95313;95749.73;;;;
2020/09/15 04:34:59;;;;;;;17.9;16.05;;;;;;;12.65;95.95313;95749.73;;;;
2020/09/15 04:36:03;;;;;;;17.9;16.05;;;;;;;12.65;95.95313;95749.73;;;;
2020/09/15 04:37:04;;;;;;;17.9;16.05;;;;;;;12.65;95.95313;95749.73;;;;
2020/09/15 04:38:11;;;;;;;17.9;16.05;;;;;;;12.65;95.95313;95749.73;;;;
2020/09/15 04:39:11;;;;;;;17.9;16.05;;;;;;;12.65;95.95313;95749.73;;;;
2020/09/15 04:40:13;;;;;;;17.55;15.75;;;;;;;12.71;96.39453;95750.57;;;;
2020/09/15 04:41:18;;;;;;;17.55;15.75;;;;;;;12.71;96.39453;95750.57;;;;
2020/09/15 04:42:31;;;;;;;17.55;15.75;;;;;;;12.71;96.39453;95750.57;;;;
2020/09/15 04:43:32;;;;;;;17.55;15.75;;;;;;;12.71;96.39453;95750.57;;;;
2020/09/15 04:44:33;;;;;;;17.55;15.75;;;;;;;12.71;96.39453;95750.57;;;;
2020/09/15 04:45:34;;;;;;;17.55;15.75;;;;;;;12.71;96.39453;95750.57;;;;
2020/09/15 04:46:35;;;;;;;17.55;15.75;;;;;;;12.71;96.39453;95750.57;;;;
2020/09/15 04:47:36;;;;;;;17.55;15.75;;;;;;;12.71;96.39453;95750.57;;;;
2020/09/15 04:48:37;;;;;;;17.55;15.75;;;;;;;12.71;96.39453;95750.57;;;;
2020/09/15 04:49:37;;;;;;;17.55;15.75;;;;;;;12.71;96.39453;95750.57;;;;
2020/09/15 04:50:38;;;;;;;17.55;15.75;;;;;;;12.71;96.39453;95750.57;;;;
2020/09/15 04:51:38;;;;;;;17.1;15.4;;;;;;;12.89;96.58105;95751.88;;;;
2020/09/15 04:52:53;;;;;;;17.1;15.4;;;;;;;12.89;96.58105;95751.88;;;;
2020/09/15 04:54:06;;;;;;;17.1;15.4;;;;;;;12.89;96.58105;95751.88;;;;
2020/09/15 04:55:17;;;;;;;17.1;15.4;;;;;;;12.89;96.58105;95751.88;;;;
2020/09/15 04:56:28;;;;;;;17.1;15.4;;;;;;;12.89;96.58105;95751.88;;;;
2020/09/15 04:57:40;;;;;;;17.1;15.4;;;;;;;12.89;96.58105;95751.88;;;;
2020/09/15 04:58:56;;;;;;;17.1;15.4;;;;;;;12.89;96.58105;95751.88;;;;
2020/09/15 05:00:12;;;;;;;17.1;15.4;;;;;;;12.89;96.58105;95751.88;;;;
2020/09/15 05:01:21;;;;;;;16.85;15.25;;;;;;;12.98;96.7959;95760.77;;;;
2020/09/15 05:02:31;;;;;;;16.85;15.25;;;;;;;12.98;96.7959;95760.77;;;;
2020/09/15 05:03:49;;;;;;;16.85;15.25;;;;;;;12.98;96.7959;95760.77;;;;
2020/09/15 05:05:06;;;;;;;16.85;15.25;;;;;;;12.98;96.7959;95760.77;;;;
2020/09/15 05:06:19;;;;;;;16.85;15.25;;;;;;;12.98;96.7959;95760.77;;;;
2020/09/15 05:07:35;;;;;;;16.85;15.25;;;;;;;12.98;96.7959;95760.77;;;;
2020/09/15 05:08:50;;;;;;;16.85;15.25;;;;;;;12.98;96.7959;95760.77;;;;
2020/09/15 05:10:01;;;;;;;16.85;15.25;;;;;;;12.98;96.7959;95760.77;;;;
2020/09/15 05:11:11;;;;;;;16.85;15.25;;;;;;;12.98;96.7959;95760.77;;;;
2020/09/15 05:12:20;;;;;;;17.05;15.25;;;;;;;13.16;97.26074;95758.45;;;;
2020/09/15 05:13:30;;;;;;;17.05;15.25;;;;;;;13.16;97.26074;95758.45;;;;
2020/09/15 05:14:49;;;;;;;17.05;15.25;;;;;;;13.16;97.26074;95758.45;;;;
2020/09/15 05:15:53;;;;;;;17.05;15.25;;;;;;;13.16;97.26074;95758.45;;;;
2020/09/15 05:16:57;;;;;;;17.05;15.25;;;;;;;13.16;97.26074;95758.45;;;;
2020/09/15 05:18:02;;;;;;;17.05;15.25;;;;;;;13.16;97.26074;95758.45;;;;
2020/09/15 05:19:06;;;;;;;17.05;15.25;;;;;;;13.16;97.26074;95758.45;;;;
2020/09/15 05:20:14;;;;;;;17.05;15.25;;;;;;;13.16;97.26074;95758.45;;;;
2020/09/15 05:21:33;;;;;;;17.05;15.25;;;;;;;13.16;97.26074;95758.45;;;;
2020/09/15 05:23:26;;;;;;;17.2;14.35;;;;;;;13.39;97.54785;95766.52;;;;
2020/09/15 05:24:52;;;;;;;17.2;14.35;;;;;;;13.39;97.54785;95766.52;;;;
2020/09/15 05:26:19;;;;;;;17.2;14.35;;;;;;;13.39;97.54785;95766.52;;;;
2020/09/15 05:27:43;;;;;;;17.2;14.35;;;;;;;13.39;97.54785;95766.52;;;;
2020/09/15 05:33:16;;;;;;;17.2;14.35;;;;;;;13.39;97.54785;95766.52;;;;
2020/09/15 05:38:41;;;;;;;15.05;13.6;;;;;;;13.74;97.63574;95770.31;;;;
2020/09/15 05:39:45;;;;;;;15.05;13.6;;;;;;;13.74;97.63574;95770.31;;;;
2020/09/15 05:40:49;;;;;;;15.05;13.6;;;;;;;13.74;97.63574;95770.31;;;;
2020/09/15 05:41:57;;;;;;;15.05;13.6;;;;;;;13.74;97.63574;95770.31;;;;
2020/09/15 05:43:07;;;;;;;15.05;13.6;;;;;;;13.74;97.63574;95770.31;;;;
2020/09/15 05:44:13;;;;;;;14.8;13.25;;;;;;;14.02;97.54883;95763.09;;;;
2020/09/15 05:45:19;;;;;;;14.8;13.25;;;;;;;14.02;97.54883;95763.09;;;;
2020/09/15 05:46:24;;;;;;;14.8;13.25;;;;;;;14.02;97.54883;95763.09;;;;
2020/09/15 05:47:31;;;;;;;14.8;13.25;;;;;;;14.02;97.54883;95763.09;;;;
2020/09/15 05:48:34;;;;;;;14.8;13.25;;;;;;;14.02;97.54883;95763.09;;;;
2020/09/15 05:49:38;;;;;;;14.8;13.25;;;;;;;14.02;97.54883;95763.09;;;;
2020/09/15 05:50:52;;;;;;;14.8;13.25;;;;;;;14.02;97.54883;95763.09;;;;
2020/09/15 05:52:07;;;;;;;14.8;13.25;;;;;;;14.02;97.54883;95763.09;;;;
2020/09/15 05:53:31;;;;;;;14.8;13.25;;;;;;;14.02;97.54883;95763.09;;;;
2020/09/15 05:54:41;;;;;;;13.7;12.3;;;;;;;14.31;97.75;95773.8;;;;
2020/09/15 05:55:59;;;;;;;13.7;12.3;;;;;;;14.31;97.75;95773.8;;;;
2020/09/15 05:57:14;;;;;;;13.7;12.3;;;;;;;14.31;97.75;95773.8;;;;
2020/09/15 05:58:19;;;;;;;13.7;12.3;;;;;;;14.31;97.75;95773.8;;;;
2020/09/15 05:59:21;;;;;;;13.7;12.3;;;;;;;14.31;97.75;95773.8;;;;
2020/09/15 06:00:22;;;;;;;13.7;12.3;;;;;;;14.31;97.75;95773.8;;;;
2020/09/15 06:01:25;;;;;;;13.7;12.3;;;;;;;14.31;97.75;95773.8;;;;
2020/09/15 06:02:29;;;;;;;13.7;12.3;;;;;;;14.31;97.75;95773.8;;;;
2020/09/15 06:03:32;;;;;;;13.7;12.3;;;;;;;14.31;97.75;95773.8;;;;
2020/09/15 06:04:35;;;;;;;13.7;12.3;;;;;;;14.31;97.75;95773.8;;;;
2020/09/15 06:05:36;;;;;;;13.65;12.35;;;;;;;14.64;97.76074;95777.83;;;;
2020/09/15 06:06:37;;;;;;;13.65;12.35;;;;;;;14.64;97.76074;95777.83;;;;
2020/09/15 06:07:39;;;;;;;13.65;12.35;;;;;;;14.64;97.76074;95777.83;;;;
2020/09/15 06:08:49;;;;;;;13.65;12.35;;;;;;;14.64;97.76074;95777.83;;;;
2020/09/15 06:09:56;;;;;;;13.65;12.35;;;;;;;14.64;97.76074;95777.83;;;;